createdAt,value
2023-04-19T00:00:19.221Z,101407.13
2023-04-19T00:02:47.697Z,101401.78
2023-04-19T00:05:14.288Z,101410.81
2023-04-19T00:07:40.946Z,101400.03
2023-04-19T00:10:09.888Z,101397.34
2023-04-19T00:12:36.418Z,101391.03
2023-04-19T00:15:02.982Z,101385.72
2023-04-19T00:17:29.425Z,101390.22
2023-04-19T00:19:55.930Z,101384.81
2023-04-19T00:22:22.439Z,101385.72
2023-04-19T00:24:50.707Z,101394.75
2023-04-19T00:27:21.023Z,101392.97
2023-04-19T00:29:47.420Z,101383.09
2023-04-19T00:32:13.884Z,101388.50
2023-04-19T00:34:40.332Z,101383.16
2023-04-19T00:37:10.013Z,101394.91
2023-04-19T00:39:36.573Z,101384.13
2023-04-19T00:42:05.030Z,101384.19
2023-04-19T00:44:32.778Z,101380.59
2023-04-19T00:47:00.047Z,101386.06
2023-04-19T00:49:27.351Z,101389.72
2023-04-19T00:51:54.052Z,101383.38
2023-04-19T00:54:20.839Z,101392.41
2023-04-19T00:56:49.175Z,101378.94
2023-04-19T00:59:17.434Z,101377.19
2023-04-19T01:01:49.380Z,101383.53
2023-04-19T01:04:18.941Z,101381.75
2023-04-19T01:06:46.531Z,101374.59
2023-04-19T01:09:12.942Z,101377.34
2023-04-19T01:11:43.210Z,101374.72
2023-04-19T01:14:10.151Z,101373.81
2023-04-19T01:16:36.545Z,101376.53
2023-04-19T01:19:04.348Z,101371.19
2023-04-19T01:21:30.832Z,101367.59
2023-04-19T01:23:58.641Z,101373.06
2023-04-19T01:26:25.169Z,101371.28
2023-04-19T01:28:51.624Z,101374.00
2023-04-19T01:31:18.068Z,101373.13
2023-04-19T01:33:47.414Z,101374.06
2023-04-19T01:36:13.963Z,101369.59
2023-04-19T01:38:41.394Z,101368.66
2023-04-19T01:41:10.747Z,101370.47
2023-04-19T01:43:37.222Z,101372.28
2023-04-19T01:46:03.698Z,101369.59
2023-04-19T01:48:30.151Z,101360.66
2023-04-19T01:50:56.683Z,101366.94
2023-04-19T01:53:23.122Z,101368.78
2023-04-19T01:55:49.718Z,101370.63
2023-04-19T01:58:17.497Z,101367.03
2023-04-19T02:00:44.808Z,101370.66
2023-04-19T02:03:11.490Z,101367.16
2023-04-19T02:05:39.143Z,101367.16
2023-04-19T02:08:05.814Z,101367.13
2023-04-19T02:10:32.265Z,101365.47
2023-04-19T02:12:58.768Z,101369.09
2023-04-19T02:15:26.632Z,101366.41
2023-04-19T02:17:53.232Z,101369.09
2023-04-19T02:20:19.892Z,101371.78
2023-04-19T02:22:49.857Z,101367.28
2023-04-19T02:25:22.255Z,101372.72
2023-04-19T02:27:50.119Z,101365.56
2023-04-19T02:30:19.527Z,101360.22
2023-04-19T02:32:49.017Z,101367.41
2023-04-19T02:35:15.583Z,101363.84
2023-04-19T02:37:42.001Z,101361.13
2023-04-19T02:40:09.123Z,101358.44
2023-04-19T02:42:35.536Z,101357.63
2023-04-19T02:45:02.004Z,101354.91
2023-04-19T02:47:28.554Z,101345.94
2023-04-19T02:56:30.346Z,101355.91
2023-04-19T02:59:00.774Z,101358.63
2023-04-19T03:01:27.565Z,101353.22
2023-04-19T03:03:54.199Z,101350.59
2023-04-19T03:06:20.785Z,101355.97
2023-04-19T03:08:47.203Z,101349.72
2023-04-19T03:11:16.155Z,101350.66
2023-04-19T03:13:43.902Z,101352.47
2023-04-19T03:16:12.206Z,101349.72
2023-04-19T03:18:39.028Z,101337.16
2023-04-19T03:21:06.063Z,101338.06
2023-04-19T03:23:40.932Z,101344.41
2023-04-19T03:26:07.382Z,101349.81
2023-04-19T03:28:38.649Z,101351.66
2023-04-19T03:31:30.222Z,101350.78
2023-04-19T03:33:58.045Z,101339.22
2023-04-19T03:36:29.454Z,101337.44
2023-04-19T03:38:56.569Z,101337.41
2023-04-19T03:41:25.537Z,101336.50
2023-04-19T03:44:08.147Z,101331.09
2023-04-19T03:46:36.580Z,101339.13
2023-04-19T03:49:03.336Z,101335.56
2023-04-19T03:51:30.060Z,101330.16
2023-04-19T03:53:56.439Z,101331.97
2023-04-19T03:56:22.998Z,101335.53
2023-04-19T03:58:50.873Z,101332.00
2023-04-19T04:01:18.401Z,101333.84
2023-04-19T04:03:46.829Z,101339.22
2023-04-19T04:06:13.500Z,101333.81
2023-04-19T04:08:40.087Z,101335.63
2023-04-19T04:11:06.534Z,101338.31
2023-04-19T04:13:33.015Z,101337.41
2023-04-19T04:16:16.133Z,101339.19
2023-04-19T04:18:42.893Z,101334.72
2023-04-19T04:21:14.141Z,101337.38
2023-04-19T04:23:43.040Z,101332.06
2023-04-19T04:26:16.437Z,101332.03
2023-04-19T04:28:53.109Z,101328.44
2023-04-19T04:31:20.147Z,101328.44
2023-04-19T04:33:47.533Z,101332.94
2023-04-19T04:36:20.010Z,101332.06
2023-04-19T04:38:49.439Z,101344.63
2023-04-19T04:41:20.836Z,101332.06
2023-04-19T04:44:04.607Z,101331.16
2023-04-19T04:46:37.515Z,101339.25
2023-04-19T04:49:04.082Z,101333.88
2023-04-19T04:51:31.843Z,101340.16
2023-04-19T04:53:59.199Z,101332.97
2023-04-19T04:56:25.707Z,101336.56
2023-04-19T04:58:52.274Z,101334.75
2023-04-19T05:01:26.982Z,101328.44
2023-04-19T05:03:53.940Z,101332.03
2023-04-19T05:06:22.200Z,101321.25
2023-04-19T05:08:50.055Z,101338.31
2023-04-19T05:11:27.208Z,101333.81
2023-04-19T05:13:53.986Z,101332.00
2023-04-19T05:16:21.056Z,101348.16
2023-04-19T05:18:48.947Z,101331.06
2023-04-19T05:21:18.745Z,101340.91
2023-04-19T05:23:47.456Z,101335.44
2023-04-19T05:26:17.667Z,101332.63
2023-04-19T05:28:47.076Z,101334.28
2023-04-19T05:31:21.282Z,101317.03
2023-04-19T05:34:04.753Z,101336.06
2023-04-19T05:36:31.741Z,101328.91
2023-04-19T05:38:58.118Z,101331.72
2023-04-19T05:41:27.983Z,101336.25
2023-04-19T05:43:54.426Z,101325.34
2023-04-19T05:46:26.071Z,101322.72
2023-04-19T05:48:55.899Z,101326.41
2023-04-19T05:51:41.214Z,101330.03
2023-04-19T05:54:11.962Z,101322.00
2023-04-19T05:56:44.646Z,101333.66
2023-04-19T05:59:11.233Z,101326.44
2023-04-19T06:01:37.853Z,101324.63
2023-04-19T06:04:04.765Z,101321.03
2023-04-19T06:06:31.265Z,101326.44
2023-04-19T06:08:57.682Z,101320.09
2023-04-19T06:11:34.616Z,101316.84
2023-04-19T06:14:08.365Z,101316.84
2023-04-19T06:16:34.814Z,101315.94
2023-04-19T06:19:01.253Z,101309.84
2023-04-19T06:21:30.252Z,101314.88
2023-04-19T06:23:56.672Z,101319.22
2023-04-19T06:26:23.103Z,101313.75
2023-04-19T06:28:49.514Z,101303.53
2023-04-19T06:31:17.227Z,101308.88
2023-04-19T06:33:43.629Z,101309.09
2023-04-19T06:36:43.212Z,101308.28
2023-04-19T06:39:12.470Z,101313.41
2023-04-19T06:41:38.872Z,101299.47
2023-04-19T06:44:05.804Z,101309.25
2023-04-19T06:46:33.627Z,101310.59
2023-04-19T06:49:04.218Z,101283.97
2023-04-19T06:51:30.773Z,101311.75
2023-04-19T06:53:59.937Z,101300.22
2023-04-19T06:56:43.127Z,101297.88
2023-04-19T06:59:09.525Z,101308.84
2023-04-19T07:01:38.010Z,101291.91
2023-04-19T07:04:04.826Z,101302.63
2023-04-19T07:06:31.507Z,101291.41
2023-04-19T07:09:01.005Z,101280.06
2023-04-19T07:11:27.384Z,101298.25
2023-04-19T07:13:53.789Z,101297.41
2023-04-19T07:16:25.801Z,101290.22
2023-04-19T07:18:53.829Z,101295.63
2023-04-19T07:21:20.350Z,101283.53
2023-04-19T07:23:47.431Z,101281.81
2023-04-19T07:26:15.890Z,101277.41
2023-04-19T07:28:44.353Z,101268.50
2023-04-19T07:31:33.489Z,101274.13
2023-04-19T07:34:04.151Z,101275.44
2023-04-19T07:36:30.558Z,101272.06
2023-04-19T07:38:57.029Z,101267.50
2023-04-19T07:41:23.404Z,101263.97
2023-04-19T07:43:49.783Z,101266.53
2023-04-19T07:46:16.375Z,101255.75
2023-04-19T07:48:42.832Z,101263.44
2023-04-19T07:51:12.370Z,101265.59
2023-04-19T07:53:39.856Z,101259.56
2023-04-19T07:56:07.576Z,101245.03
2023-04-19T07:58:33.965Z,101258.91
2023-04-19T08:01:00.559Z,101256.16
2023-04-19T08:03:27.250Z,101255.84
2023-04-19T08:05:54.016Z,101261.53
2023-04-19T08:08:21.829Z,101261.28
2023-04-19T08:10:48.223Z,101256.50
2023-04-19T08:13:14.603Z,101257.06
2023-04-19T08:18:10.348Z,101247.72
2023-04-19T08:20:36.946Z,101256.72
2023-04-19T08:23:10.957Z,101243.28
2023-04-19T08:25:48.126Z,101243.59
2023-04-19T08:28:14.634Z,101227.88
2023-04-19T08:30:41.095Z,101242.78
2023-04-19T08:33:07.722Z,101234.59
2023-04-19T08:35:34.700Z,101231.00
2023-04-19T08:38:02.577Z,101235.00
2023-04-19T08:40:30.386Z,101226.41
2023-04-19T08:43:05.594Z,101227.25
2023-04-19T08:45:33.154Z,101224.28
2023-04-19T08:48:02.369Z,101224.66
2023-04-19T08:53:08.457Z,101217.94
2023-04-19T08:55:54.824Z,101206.50
2023-04-19T08:58:40.698Z,101204.69
2023-04-19T09:01:22.831Z,101203.75
2023-04-19T09:04:07.185Z,101204.28
2023-04-19T09:06:43.653Z,101193.69
2023-04-19T09:11:48.798Z,101192.94
2023-04-19T09:14:18.285Z,101189.16
2023-04-19T09:16:45.513Z,101180.38
2023-04-19T09:19:23.035Z,101169.31
2023-04-19T09:21:51.627Z,101163.50
2023-04-19T09:24:18.044Z,101175.31
2023-04-19T09:26:54.409Z,101169.13
2023-04-19T09:29:22.205Z,101174.47
2023-04-19T09:31:57.116Z,101164.59
2023-04-19T09:34:23.594Z,101150.72
2023-04-19T09:36:54.633Z,101147.72
2023-04-19T09:39:31.503Z,101155.06
2023-04-19T09:41:58.041Z,101152.78
2023-04-19T09:46:55.256Z,101133.94
2023-04-19T09:49:36.833Z,101136.78
2023-04-19T09:52:04.991Z,101147.59
2023-04-19T09:54:32.248Z,101128.22
2023-04-19T09:57:00.858Z,101114.16
2023-04-19T09:59:29.260Z,101108.44
2023-04-19T10:01:56.169Z,101122.84
2023-04-19T10:04:33.390Z,101118.69
2023-04-19T10:09:53.011Z,101097.44
2023-04-19T10:12:51.729Z,101098.47
2023-04-19T10:15:14.340Z,101086.16
2023-04-19T10:17:41.615Z,101099.41
2023-04-19T10:20:13.275Z,101078.06
2023-04-19T10:22:40.278Z,101085.41
2023-04-19T10:25:11.793Z,101076.47
2023-04-19T10:27:38.497Z,101086.94
2023-04-19T10:30:07.596Z,101081.25
2023-04-19T10:32:40.202Z,101064.06
2023-04-19T10:35:12.005Z,101080.50
2023-04-19T10:37:40.752Z,101071.97
2023-04-19T10:40:08.312Z,101061.09
2023-04-19T10:43:12.208Z,101060.84
2023-04-19T10:45:39.257Z,101062.13
2023-04-19T10:48:27.143Z,101061.13
2023-04-19T10:51:00.166Z,101060.78
2023-04-19T10:53:50.084Z,101057.84
2023-04-19T10:56:18.289Z,101051.94
2023-04-19T10:59:12.609Z,101047.22
2023-04-19T11:01:40.778Z,101048.88
2023-04-19T11:04:10.519Z,101033.28
2023-04-19T11:06:38.248Z,101035.00
2023-04-19T11:09:04.784Z,101035.47
2023-04-19T11:11:33.529Z,101018.84
2023-04-19T11:14:00.666Z,101027.91
2023-04-19T11:16:38.332Z,101030.97
2023-04-19T11:19:16.379Z,101002.81
2023-04-19T11:21:43.159Z,101021.59
2023-04-19T11:24:10.574Z,101010.50
2023-04-19T11:26:37.140Z,101007.09
2023-04-19T11:29:03.984Z,101007.88
2023-04-19T11:31:32.053Z,101002.63
2023-04-19T11:33:59.057Z,101011.91
2023-04-19T11:36:26.849Z,100997.44
2023-04-19T11:38:54.022Z,100999.41
2023-04-19T11:41:20.557Z,101003.22
2023-04-19T11:43:47.104Z,100998.94
2023-04-19T11:46:14.254Z,100988.44
2023-04-19T11:48:51.192Z,100989.16
2023-04-19T11:51:17.636Z,100983.91
2023-04-19T11:53:45.737Z,100978.91
2023-04-19T11:56:12.204Z,100980.13
2023-04-19T11:58:40.589Z,100991.53
2023-04-19T12:01:08.436Z,100973.94
2023-04-19T12:03:40.086Z,100975.13
2023-04-19T12:06:10.813Z,100982.94
2023-04-19T12:08:38.359Z,100986.50
2023-04-19T12:11:06.689Z,100978.75
2023-04-19T12:13:34.159Z,100978.75
2023-04-19T12:16:00.889Z,100981.44
2023-04-19T12:18:27.358Z,100975.03
2023-04-19T12:20:54.070Z,100969.81
2023-04-19T12:23:21.194Z,100960.50
2023-04-19T12:25:48.847Z,100967.81
2023-04-19T12:28:16.646Z,100973.16
2023-04-19T12:30:43.242Z,100963.88
2023-04-19T12:33:09.808Z,100976.09
2023-04-19T12:35:36.269Z,100962.69
2023-04-19T12:38:04.534Z,100962.72
2023-04-19T12:40:31.013Z,100967.56
2023-04-19T12:42:57.599Z,100971.53
2023-04-19T12:45:25.617Z,100965.22
2023-04-19T12:47:52.112Z,100962.72
2023-04-19T12:50:18.683Z,100961.28
2023-04-19T12:52:45.329Z,100965.09
2023-04-19T12:55:11.789Z,100956.78
2023-04-19T12:57:38.153Z,100961.94
2023-04-19T13:00:06.504Z,100953.56
2023-04-19T13:02:37.938Z,100943.44
2023-04-19T13:05:04.933Z,100945.25
2023-04-19T13:07:31.505Z,100925.31
2023-04-19T13:09:57.913Z,100925.00
2023-04-19T13:12:24.427Z,100916.81
2023-04-19T13:14:51.140Z,100915.75
2023-04-19T13:17:17.787Z,100916.22
2023-04-19T13:19:45.616Z,100909.56
2023-04-19T13:22:12.060Z,100899.75
2023-04-19T13:24:38.490Z,100908.75
2023-04-19T13:27:07.301Z,100904.81
2023-04-19T13:29:35.124Z,100901.66
2023-04-19T13:32:01.641Z,100898.69
2023-04-19T13:34:28.445Z,100888.59
2023-04-19T13:36:56.830Z,100875.63
2023-04-19T13:39:23.352Z,100890.13
2023-04-19T13:41:50.862Z,100874.78
2023-04-19T13:44:20.017Z,100879.13
2023-04-19T13:46:46.511Z,100868.78
2023-04-19T13:49:13.030Z,100856.47
2023-04-19T13:51:49.688Z,100856.34
2023-04-19T13:54:19.837Z,100857.31
2023-04-19T13:56:47.426Z,100856.44
2023-04-19T13:59:15.317Z,100867.59
2023-04-19T14:01:41.853Z,100859.69
2023-04-19T14:04:08.527Z,100864.13
2023-04-19T14:06:35.137Z,100861.94
2023-04-19T14:09:01.581Z,100865.66
2023-04-19T14:11:30.166Z,100866.50
2023-04-19T14:13:56.627Z,100867.41
2023-04-19T14:16:23.065Z,100866.22
2023-04-19T14:18:49.514Z,100848.78
2023-04-19T14:21:16.162Z,100856.59
2023-04-19T14:23:42.545Z,100846.03
2023-04-19T14:26:08.977Z,100851.47
2023-04-19T14:28:36.724Z,100842.34
2023-04-19T14:31:03.177Z,100841.59
2023-04-19T14:33:29.692Z,100832.47
2023-04-19T14:35:56.198Z,100835.13
2023-04-19T14:38:22.655Z,100846.75
2023-04-19T14:40:49.102Z,100855.13
2023-04-19T14:43:15.612Z,100849.28
2023-04-19T14:45:43.353Z,100840.34
2023-04-19T14:48:09.917Z,100842.31
2023-04-19T14:50:36.453Z,100846.88
2023-04-19T14:53:02.947Z,100840.56
2023-04-19T14:55:29.402Z,100842.47
2023-04-19T14:57:55.822Z,100843.81
2023-04-19T15:00:22.318Z,100867.19
2023-04-19T15:02:52.601Z,100864.09
2023-04-19T15:05:22.489Z,100892.47
2023-04-19T15:07:49.301Z,100905.09
2023-04-19T15:10:16.224Z,100911.75
2023-04-19T15:13:57.700Z,100913.59
2023-04-19T15:16:04.821Z,100921.63
2023-04-19T15:21:24.344Z,100923.09
2023-04-19T15:23:53.605Z,100900.97
2023-04-19T15:26:22.086Z,100905.66
2023-04-19T15:28:57.840Z,100902.09
2023-04-19T15:31:24.904Z,100885.09
2023-04-19T15:33:52.722Z,100890.50
2023-04-19T15:36:22.227Z,100884.91
2023-04-19T15:38:50.930Z,100890.19
2023-04-19T15:41:19.508Z,100878.56
2023-04-19T15:43:48.798Z,100885.47
2023-04-19T15:46:20.258Z,100872.66
2023-04-19T15:48:53.422Z,100871.50
2023-04-19T15:51:24.030Z,100865.59
2023-04-19T15:53:52.335Z,100859.00
2023-04-19T15:56:26.056Z,100858.56
2023-04-19T15:58:52.650Z,100853.72
2023-04-19T16:01:21.112Z,100854.72
2023-04-19T16:03:47.952Z,100852.78
2023-04-19T16:06:23.682Z,100846.47
2023-04-19T16:08:50.557Z,100839.09
2023-04-19T16:11:17.153Z,100838.03
2023-04-19T16:13:43.636Z,100827.78
2023-04-19T16:16:10.214Z,100839.16
2023-04-19T16:18:36.680Z,100837.22
2023-04-19T16:21:07.424Z,100837.28
2023-04-19T16:23:35.124Z,100831.66
2023-04-19T16:26:01.873Z,100826.59
2023-04-19T16:28:31.519Z,100819.03
2023-04-19T16:30:58.113Z,100823.31
2023-04-19T16:33:27.422Z,100817.56
2023-04-19T16:35:54.609Z,100825.03
2023-04-19T16:38:21.203Z,100823.38
2023-04-19T16:40:51.734Z,100825.66
2023-04-19T16:43:24.580Z,100822.59
2023-04-19T16:45:55.476Z,100819.38
2023-04-19T16:48:22.220Z,100820.41
2023-04-19T16:50:51.071Z,100812.59
2023-04-19T16:53:19.125Z,100831.63
2023-04-19T16:55:45.737Z,100826.47
2023-04-19T16:58:14.313Z,100816.75
2023-04-19T17:00:43.535Z,100809.78
2023-04-19T17:03:10.579Z,100816.13
2023-04-19T17:05:37.699Z,100814.38
2023-04-19T17:08:04.807Z,100814.28
2023-04-19T17:10:31.503Z,100817.03
2023-04-19T17:12:58.109Z,100802.75
2023-04-19T17:15:26.331Z,100811.78
2023-04-19T17:17:53.106Z,100806.44
2023-04-19T17:20:21.886Z,100807.34
2023-04-19T17:22:49.669Z,100810.06
2023-04-19T17:25:16.395Z,100806.50
2023-04-19T17:27:43.129Z,100804.75
2023-04-19T17:30:10.102Z,100795.78
2023-04-19T17:32:38.166Z,100816.47
2023-04-19T17:35:05.297Z,100810.25
2023-04-19T17:37:31.793Z,100821.03
2023-04-19T17:39:58.453Z,100819.19
2023-04-19T17:42:25.063Z,100818.31
2023-04-19T17:44:51.752Z,100823.72
2023-04-19T17:47:18.969Z,100812.06
2023-04-19T17:49:47.914Z,100812.16
2023-04-19T17:52:16.019Z,100812.22
2023-04-19T17:54:45.340Z,100812.28
2023-04-19T17:57:11.873Z,100805.25
2023-04-19T17:59:38.468Z,100811.56
2023-04-19T18:02:05.144Z,100806.19
2023-04-19T18:04:34.621Z,100809.00
2023-04-19T18:07:02.482Z,100804.56
2023-04-19T18:09:36.511Z,100802.00
2023-04-19T18:12:03.162Z,100809.22
2023-04-19T18:14:29.652Z,100802.91
2023-04-19T18:16:58.415Z,100803.94
2023-04-19T18:19:26.219Z,100804.06
2023-04-19T18:21:52.873Z,100804.06
2023-04-19T18:24:20.731Z,100801.47
2023-04-19T18:26:48.395Z,100807.78
2023-04-19T18:29:22.376Z,100798.81
2023-04-19T18:31:50.763Z,100818.66
2023-04-19T18:34:17.327Z,100816.88
2023-04-19T18:36:43.793Z,100824.44
2023-04-19T18:39:11.776Z,100832.91
2023-04-19T18:41:41.400Z,100833.13
2023-04-19T18:44:29.971Z,100834.25
2023-04-19T18:47:01.136Z,100846.97
2023-04-19T18:50:03.458Z,100847.28
2023-04-19T18:52:31.623Z,100858.97
2023-04-19T18:54:59.661Z,100845.69
2023-04-19T18:57:30.584Z,100841.28
2023-04-19T19:00:01.451Z,100847.75
2023-04-19T19:02:28.405Z,100851.44
2023-04-19T19:04:57.838Z,100849.81
2023-04-19T19:07:36.440Z,100858.78
2023-04-19T19:10:18.665Z,100864.22
2023-04-19T19:12:48.565Z,100859.91
2023-04-19T19:15:23.430Z,100863.56
2023-04-19T19:17:51.692Z,100869.75
2023-04-19T19:20:20.276Z,100867.97
2023-04-19T19:22:51.423Z,100866.31
2023-04-19T19:25:24.361Z,100866.56
2023-04-19T19:28:06.221Z,100871.00
2023-04-19T19:30:34.597Z,100864.75
2023-04-19T19:33:02.023Z,100863.00
2023-04-19T19:35:28.608Z,100867.50
2023-04-19T19:37:55.184Z,100868.56
2023-04-19T19:40:24.636Z,100870.56
2023-04-19T19:42:52.438Z,100860.69
2023-04-19T19:45:28.510Z,100859.84
2023-04-19T19:47:55.126Z,100858.09
2023-04-19T19:51:02.104Z,100859.03
2023-04-19T19:53:11.821Z,100847.41
2023-04-19T19:55:38.368Z,100851.03
2023-04-19T20:03:06.725Z,100844.84
2023-04-19T20:05:33.837Z,100849.38
2023-04-19T20:08:19.685Z,100844.03
2023-04-19T20:10:50.940Z,100851.19
2023-04-19T20:13:20.590Z,100852.13
2023-04-19T20:16:06.405Z,100838.72
2023-04-19T20:18:35.518Z,100844.16
2023-04-19T20:21:02.092Z,100836.19
2023-04-19T20:23:37.753Z,100841.50
2023-04-19T20:26:07.356Z,100837.97
2023-04-19T20:28:38.643Z,100837.13
2023-04-19T20:31:05.246Z,100839.81
2023-04-19T20:33:34.038Z,100848.78
2023-04-19T20:36:00.810Z,100844.38
2023-04-19T20:38:27.274Z,100842.56
2023-04-19T20:40:53.855Z,100848.84
2023-04-19T20:43:22.331Z,100840.75
2023-04-19T20:45:50.206Z,100842.63
2023-04-19T20:48:31.816Z,100848.09
2023-04-19T20:51:01.285Z,100851.72
2023-04-19T20:53:27.815Z,100837.47
2023-04-19T20:55:54.424Z,100849.94
2023-04-19T20:58:20.944Z,100846.34
2023-04-19T21:00:47.593Z,100844.50
2023-04-19T21:03:22.903Z,100844.53
2023-04-19T21:05:51.572Z,100841.91
2023-04-19T21:08:20.473Z,100843.69
2023-04-19T21:10:52.942Z,100848.22
2023-04-19T21:13:21.512Z,100845.59
2023-04-19T21:15:52.869Z,100848.34
2023-04-19T21:18:23.981Z,100842.16
2023-04-19T21:20:53.520Z,100851.06
2023-04-19T21:23:23.470Z,100838.53
2023-04-19T21:25:52.305Z,100834.09
2023-04-19T21:28:24.753Z,100826.06
2023-04-19T21:30:56.259Z,100832.34
2023-04-19T21:33:27.329Z,100836.78
2023-04-19T21:35:53.930Z,100824.31
2023-04-19T21:38:23.484Z,100824.34
2023-04-19T21:40:54.690Z,100821.69
2023-04-19T21:43:27.131Z,100823.44
2023-04-19T21:45:53.905Z,100823.50
2023-04-19T21:48:23.335Z,100818.13
2023-04-19T21:50:53.917Z,100808.25
2023-04-19T21:53:23.544Z,100824.50
2023-04-19T21:55:52.219Z,100824.50
2023-04-19T21:58:21.537Z,100825.34
2023-04-19T22:00:56.966Z,100836.09
2023-04-19T22:03:23.968Z,100832.53
2023-04-19T22:05:57.609Z,100835.22
2023-04-19T22:08:30.864Z,100830.66
2023-04-19T22:10:58.685Z,100816.41
2023-04-19T22:13:25.250Z,100816.53
2023-04-19T22:15:54.551Z,100821.97
2023-04-19T22:18:21.057Z,100817.50
2023-04-19T22:20:57.092Z,100817.47
2023-04-19T22:23:23.574Z,100826.38
2023-04-19T22:25:53.188Z,100829.88
2023-04-19T22:28:22.520Z,100824.50
2023-04-19T22:30:52.124Z,100827.19
2023-04-19T22:33:26.840Z,100812.03
2023-04-19T22:35:54.721Z,100811.09
2023-04-19T22:38:23.822Z,100812.91
2023-04-19T22:40:54.899Z,100821.81
2023-04-19T22:43:21.842Z,100813.81
2023-04-19T22:45:51.292Z,100808.44
2023-04-19T22:48:32.024Z,100814.69
2023-04-19T22:51:03.078Z,100815.56
2023-04-19T22:53:29.744Z,100814.63
2023-04-19T22:55:56.250Z,100803.97
2023-04-19T22:58:22.906Z,100810.16
2023-04-19T23:00:51.365Z,100811.94
2023-04-19T23:03:19.856Z,100815.53
2023-04-19T23:05:46.511Z,100809.31
2023-04-19T23:08:14.391Z,100802.09
2023-04-19T23:10:43.141Z,100807.50
2023-04-19T23:13:09.626Z,100809.34
2023-04-19T23:15:38.119Z,100803.94
2023-04-19T23:18:04.826Z,100802.25
2023-04-19T23:20:31.479Z,100799.53
2023-04-19T23:22:57.974Z,100803.97
2023-04-19T23:25:25.872Z,100796.78
2023-04-19T23:27:52.337Z,100800.34
2023-04-19T23:30:21.721Z,100795.00
2023-04-19T23:32:54.049Z,100797.69
2023-04-19T23:35:22.602Z,100779.91
2023-04-19T23:37:50.275Z,100787.88
2023-04-19T23:40:16.962Z,100795.94
2023-04-19T23:42:52.156Z,100785.22
2023-04-19T23:45:18.721Z,100784.25
2023-04-19T23:47:45.206Z,100784.25
2023-04-19T23:50:11.827Z,100779.75
2023-04-19T23:52:38.273Z,100782.47
2023-04-19T23:55:05.488Z,100778.94
2023-04-19T23:57:33.840Z,100782.53
